createdAt,value
2023-05-11T00:01:08.355Z,101525.59
2023-05-11T00:03:10.463Z,101518.59
2023-05-11T00:05:12.148Z,101528.28
2023-05-11T00:07:13.615Z,101523.03
2023-05-11T00:09:15.150Z,101526.59
2023-05-11T00:11:18.506Z,101526.63
2023-05-11T00:13:20.442Z,101522.19
2023-05-11T00:15:21.934Z,101523.97
2023-05-11T00:17:23.523Z,101530.19
2023-05-11T00:19:25.083Z,101522.22
2023-05-11T00:21:26.820Z,101526.63
2023-05-11T00:23:28.393Z,101529.28
2023-05-11T00:25:30.082Z,101524.84
2023-05-11T00:27:31.548Z,101525.75
2023-05-11T00:29:33.012Z,101527.50
2023-05-11T00:31:34.530Z,101518.69
2023-05-11T00:33:36.081Z,101525.75
2023-05-11T00:35:37.700Z,101522.19
2023-05-11T00:37:39.375Z,101524.81
2023-05-11T00:39:41.545Z,101521.28
2023-05-11T00:41:43.029Z,101516.00
2023-05-11T00:43:44.480Z,101512.47
2023-05-11T00:45:48.150Z,101511.66
2023-05-11T00:47:50.008Z,101509.91
2023-05-11T00:49:53.316Z,101510.81
2023-05-11T00:51:55.063Z,101506.44
2023-05-11T00:53:56.890Z,101508.25
2023-05-11T00:55:59.046Z,101507.38
2023-05-11T00:58:00.616Z,101513.56
2023-05-11T01:00:03.399Z,101517.97
2023-05-11T01:02:05.567Z,101518.88
2023-05-11T01:04:07.726Z,101512.75
2023-05-11T01:06:15.562Z,101515.44
2023-05-11T01:08:31.035Z,101519.84
2023-05-11T01:10:58.848Z,101524.31
2023-05-11T01:13:26.783Z,101520.84
2023-05-11T01:15:50.890Z,101522.63
2023-05-11T01:18:11.715Z,101520.88
2023-05-11T01:20:18.683Z,101529.69
2023-05-11T01:22:44.996Z,101530.59
2023-05-11T01:25:31.752Z,101523.59
2023-05-11T01:28:14.249Z,101525.34
2023-05-11T01:30:21.551Z,101531.53
2023-05-11T01:32:26.398Z,101534.19
2023-05-11T01:34:31.941Z,101528.88
2023-05-11T01:36:36.040Z,101528.88
2023-05-11T01:38:40.839Z,101530.63
2023-05-11T01:40:44.356Z,101529.75
2023-05-11T01:42:50.035Z,101534.16
2023-05-11T01:44:55.214Z,101530.66
2023-05-11T01:47:00.529Z,101529.75
2023-05-11T01:49:07.511Z,101534.19
2023-05-11T01:51:09.607Z,101535.06
2023-05-11T01:53:13.671Z,101536.84
2023-05-11T01:55:19.504Z,101537.69
2023-05-11T01:57:22.045Z,101540.34
2023-05-11T01:59:26.433Z,101539.47
2023-05-11T02:01:30.514Z,101535.97
2023-05-11T02:03:35.052Z,101542.13
2023-05-11T02:05:38.973Z,101544.78
2023-05-11T02:07:42.892Z,101550.06
2023-05-11T02:09:45.785Z,101557.09
2023-05-11T02:11:49.150Z,101550.94
2023-05-11T02:13:53.285Z,101552.72
2023-05-11T02:15:56.932Z,101556.22
2023-05-11T02:17:59.338Z,101557.09
2023-05-11T02:20:03.677Z,101553.59
2023-05-11T02:22:07.015Z,101556.19
2023-05-11T02:24:09.313Z,101559.78
2023-05-11T02:26:13.394Z,101563.31
2023-05-11T02:28:14.937Z,101559.78
2023-05-11T02:30:16.808Z,101558.03
2023-05-11T02:32:21.681Z,101553.66
2023-05-11T02:34:26.786Z,101568.69
2023-05-11T02:36:29.799Z,101565.19
2023-05-11T02:38:34.443Z,101567.00
2023-05-11T02:40:45.873Z,101563.56
2023-05-11T02:42:52.837Z,101557.41
2023-05-11T02:45:20.639Z,101570.63
2023-05-11T02:47:29.019Z,101562.72
2023-05-11T02:49:32.514Z,101565.41
2023-05-11T02:51:37.675Z,101571.59
2023-05-11T02:53:41.562Z,101575.19
2023-05-11T02:55:43.141Z,101571.69
2023-05-11T02:57:45.722Z,101567.28
2023-05-11T02:59:48.202Z,101573.44
2023-05-11T03:01:50.722Z,101567.28
2023-05-11T03:03:52.877Z,101573.44
2023-05-11T03:05:54.514Z,101576.97
2023-05-11T03:07:59.665Z,101574.28
2023-05-11T03:10:02.960Z,101575.19
2023-05-11T03:12:05.620Z,101568.13
2023-05-11T03:14:07.563Z,101566.34
2023-05-11T03:16:11.470Z,101576.94
2023-05-11T03:18:13.572Z,101573.44
2023-05-11T03:20:16.936Z,101573.44
2023-05-11T03:22:20.348Z,101578.72
2023-05-11T03:24:22.874Z,101577.84
2023-05-11T03:26:28.378Z,101570.75
2023-05-11T03:28:31.841Z,101578.72
2023-05-11T03:30:33.771Z,101572.56
2023-05-11T03:32:36.126Z,101573.44
2023-05-11T03:34:37.757Z,101573.44
2023-05-11T03:36:40.556Z,101570.81
2023-05-11T03:38:45.007Z,101571.72
2023-05-11T03:40:47.707Z,101572.53
2023-05-11T03:42:51.324Z,101570.81
2023-05-11T03:44:58.317Z,101575.19
2023-05-11T03:47:01.702Z,101571.63
2023-05-11T03:49:05.057Z,101570.72
2023-05-11T03:51:06.935Z,101568.09
2023-05-11T03:53:08.805Z,101573.38
2023-05-11T03:55:10.768Z,101572.50
2023-05-11T03:57:13.920Z,101575.13
2023-05-11T03:59:16.786Z,101569.78
2023-05-11T04:01:18.869Z,101571.56
2023-05-11T04:03:20.579Z,101570.69
2023-05-11T04:05:22.202Z,101578.63
2023-05-11T04:07:23.783Z,101577.75
2023-05-11T04:09:25.518Z,101571.56
2023-05-11T04:11:27.630Z,101575.09
2023-05-11T04:13:29.111Z,101569.78
2023-05-11T04:15:30.567Z,101576.88
2023-05-11T04:17:32.076Z,101577.72
2023-05-11T04:19:33.553Z,101579.47
2023-05-11T04:21:35.932Z,101569.75
2023-05-11T04:23:38.230Z,101577.69
2023-05-11T04:25:39.707Z,101574.22
2023-05-11T04:27:41.275Z,101577.75
2023-05-11T04:29:42.798Z,101579.56
2023-05-11T04:31:44.300Z,101577.91
2023-05-11T04:33:45.826Z,101577.91
2023-05-11T04:35:49.258Z,101584.09
2023-05-11T04:37:50.834Z,101573.50
2023-05-11T04:39:52.386Z,101581.41
2023-05-11T04:41:53.866Z,101583.19
2023-05-11T04:43:55.330Z,101583.19
2023-05-11T04:45:57.048Z,101579.69
2023-05-11T04:47:58.548Z,101589.44
2023-05-11T04:50:00.079Z,101587.72
2023-05-11T04:52:01.610Z,101576.22
2023-05-11T04:54:03.155Z,101587.72
2023-05-11T04:56:05.108Z,101586.84
2023-05-11T04:58:06.658Z,101587.75
2023-05-11T05:00:09.298Z,101585.06
2023-05-11T05:02:10.791Z,101585.91
2023-05-11T05:04:12.594Z,101594.69
2023-05-11T05:06:14.196Z,101594.63
2023-05-11T05:08:15.698Z,101588.41
2023-05-11T05:10:17.604Z,101596.34
2023-05-11T05:12:19.300Z,101592.84
2023-05-11T05:14:20.751Z,101593.72
2023-05-11T05:16:22.316Z,101594.56
2023-05-11T05:18:23.832Z,101598.97
2023-05-11T05:20:25.556Z,101601.63
2023-05-11T05:22:27.086Z,101601.59
2023-05-11T05:24:28.603Z,101601.56
2023-05-11T05:26:30.139Z,101604.16
2023-05-11T05:28:31.568Z,101609.38
2023-05-11T05:30:33.191Z,101608.47
2023-05-11T05:32:34.736Z,101608.44
2023-05-11T05:34:36.314Z,101614.53
2023-05-11T05:36:39.110Z,101616.31
2023-05-11T05:38:40.590Z,101614.53
2023-05-11T05:40:42.121Z,101618.91
2023-05-11T05:42:43.940Z,101623.25
2023-05-11T05:44:45.452Z,101625.94
2023-05-11T05:46:47.120Z,101623.25
2023-05-11T05:48:48.685Z,101626.72
2023-05-11T05:50:50.785Z,101628.44
2023-05-11T05:52:52.254Z,101634.56
2023-05-11T05:54:53.683Z,101630.09
2023-05-11T05:56:55.451Z,101637.13
2023-05-11T05:58:56.951Z,101639.66
2023-05-11T06:00:58.456Z,101643.09
2023-05-11T06:03:00.285Z,101643.03
2023-05-11T06:05:02.043Z,101645.69
2023-05-11T06:07:03.578Z,101642.19
2023-05-11T06:09:05.043Z,101648.31
2023-05-11T06:11:06.555Z,101644.72
2023-05-11T06:13:08.485Z,101646.50
2023-05-11T06:15:10.338Z,101652.66
2023-05-11T06:17:11.845Z,101650.84
2023-05-11T06:19:13.551Z,101650.84
2023-05-11T06:21:15.115Z,101653.44
2023-05-11T06:23:16.720Z,101650.72
2023-05-11T06:25:18.215Z,101648.91
2023-05-11T06:27:19.736Z,101651.53
2023-05-11T06:29:22.303Z,101651.53
2023-05-11T06:31:24.397Z,101648.78
2023-05-11T06:33:26.417Z,101653.19
2023-05-11T06:35:27.894Z,101648.72
2023-05-11T06:37:30.182Z,101653.09
2023-05-11T06:39:31.663Z,101649.56
2023-05-11T06:41:33.244Z,101644.25
2023-05-11T06:43:34.701Z,101641.56
2023-05-11T06:45:36.890Z,101645.91
2023-05-11T06:47:39.392Z,101647.59
2023-05-11T06:49:44.250Z,101650.16
2023-05-11T06:51:45.725Z,101643.91
2023-05-11T06:53:47.361Z,101652.66
2023-05-11T06:55:48.841Z,101647.28
2023-05-11T06:57:50.300Z,101651.69
2023-05-11T06:59:51.817Z,101651.63
2023-05-11T07:01:53.301Z,101643.59
2023-05-11T07:03:55.388Z,101651.44
2023-05-11T07:05:56.859Z,101654.88
2023-05-11T07:07:58.336Z,101650.44
2023-05-11T07:09:59.899Z,101648.63
2023-05-11T07:12:01.474Z,101656.47
2023-05-11T07:14:03.404Z,101654.53
2023-05-11T07:16:05.095Z,101654.41
2023-05-11T07:18:06.634Z,101649.88
2023-05-11T07:20:08.836Z,101647.19
2023-05-11T07:22:10.704Z,101653.28
2023-05-11T07:24:13.171Z,101654.09
2023-05-11T07:26:14.695Z,101648.72
2023-05-11T07:28:16.232Z,101660.13
2023-05-11T07:30:18.824Z,101649.41
2023-05-11T07:32:20.530Z,101652.84
2023-05-11T07:34:22.112Z,101655.47
2023-05-11T07:36:23.685Z,101658.91
2023-05-11T07:38:25.269Z,101657.03
2023-05-11T07:40:26.976Z,101651.59
2023-05-11T07:42:28.529Z,101659.59
2023-05-11T07:44:29.982Z,101653.28
2023-05-11T07:46:31.499Z,101657.59
2023-05-11T07:48:33.079Z,101657.56
2023-05-11T07:50:34.880Z,101659.16
2023-05-11T07:52:36.392Z,101658.16
2023-05-11T07:54:37.996Z,101658.94
2023-05-11T07:56:39.597Z,101660.56
2023-05-11T07:58:41.136Z,101658.66
2023-05-11T08:00:42.635Z,101662.94
2023-05-11T08:02:44.330Z,101659.44
2023-05-11T08:04:46.425Z,101666.41
2023-05-11T08:06:48.281Z,101664.56
2023-05-11T08:08:49.791Z,101661.78
2023-05-11T08:10:51.873Z,101662.56
2023-05-11T08:12:53.407Z,101657.94
2023-05-11T08:14:55.334Z,101668.38
2023-05-11T08:16:56.874Z,101662.09
2023-05-11T08:18:58.455Z,101667.25
2023-05-11T08:21:00.186Z,101667.16
2023-05-11T08:23:01.673Z,101663.44
2023-05-11T08:25:03.851Z,101671.34
2023-05-11T08:27:06.157Z,101671.19
2023-05-11T08:29:07.755Z,101670.19
2023-05-11T08:31:09.230Z,101670.00
2023-05-11T08:33:29.180Z,101665.41
2023-05-11T08:35:33.146Z,101673.28
2023-05-11T08:37:34.608Z,101666.91
2023-05-11T08:39:46.690Z,101666.81
2023-05-11T08:41:51.586Z,101661.50
2023-05-11T08:43:55.161Z,101675.66
2023-05-11T08:46:01.182Z,101673.69
2023-05-11T08:48:03.575Z,101675.31
2023-05-11T08:50:05.513Z,101671.69
2023-05-11T08:52:08.062Z,101675.88
2023-05-11T08:54:09.687Z,101677.41
2023-05-11T08:56:13.018Z,101674.34
2023-05-11T08:58:19.445Z,101678.94
2023-05-11T09:00:23.168Z,101677.09
2023-05-11T09:02:26.255Z,101676.81
2023-05-11T09:04:28.607Z,101677.38
2023-05-11T09:06:31.277Z,101676.34
2023-05-11T09:08:35.849Z,101681.34
2023-05-11T09:10:37.962Z,101682.19
2023-05-11T09:12:39.562Z,101689.00
2023-05-11T09:14:41.222Z,101678.25
2023-05-11T09:16:42.779Z,101678.91
2023-05-11T09:18:52.528Z,101683.91
2023-05-11T09:20:54.406Z,101680.97
2023-05-11T09:22:56.449Z,101679.81
2023-05-11T09:24:58.021Z,101677.94
2023-05-11T09:27:09.989Z,101679.66
2023-05-11T09:29:11.725Z,101686.63
2023-05-11T09:31:13.393Z,101681.22
2023-05-11T09:33:22.844Z,101684.94
2023-05-11T09:35:32.214Z,101677.53
2023-05-11T09:37:33.726Z,101682.63
2023-05-11T09:39:47.342Z,101678.97
2023-05-11T09:42:19.161Z,101674.53
2023-05-11T09:44:20.681Z,101686.88
2023-05-11T09:46:22.744Z,101690.97
2023-05-11T09:48:27.019Z,101684.53
2023-05-11T09:50:33.419Z,101683.38
2023-05-11T09:52:34.924Z,101684.06
2023-05-11T09:54:44.928Z,101676.75
2023-05-11T09:56:54.603Z,101683.53
2023-05-11T09:58:57.608Z,101685.09
2023-05-11T10:00:59.241Z,101682.97
2023-05-11T10:03:06.696Z,101681.84
2023-05-11T10:05:13.183Z,101680.78
2023-05-11T10:07:25.196Z,101680.56
2023-05-11T10:09:27.191Z,101676.88
2023-05-11T10:11:28.678Z,101675.97
2023-05-11T10:13:32.230Z,101668.75
2023-05-11T10:15:35.303Z,101678.34
2023-05-11T10:17:37.574Z,101673.50
2023-05-11T10:19:39.550Z,101671.44
2023-05-11T10:21:41.175Z,101680.44
2023-05-11T10:23:43.142Z,101676.03
2023-05-11T10:25:45.188Z,101673.19
2023-05-11T10:27:47.284Z,101672.38
2023-05-11T10:29:49.494Z,101671.56
2023-05-11T10:31:52.423Z,101668.22
2023-05-11T10:33:53.983Z,101678.09
2023-05-11T10:35:56.148Z,101672.94
2023-05-11T10:37:58.475Z,101670.16
2023-05-11T10:40:00.311Z,101666.56
2023-05-11T10:42:04.826Z,101665.56
2023-05-11T10:44:12.676Z,101664.75
2023-05-11T10:46:43.358Z,101666.38
2023-05-11T10:48:55.010Z,101669.03
2023-05-11T10:51:21.017Z,101665.19
2023-05-11T10:53:25.603Z,101665.91
2023-05-11T10:55:47.034Z,101667.50
2023-05-11T10:58:05.637Z,101668.19
2023-05-11T11:00:47.649Z,101671.66
2023-05-11T11:02:49.483Z,101671.03
2023-05-11T11:04:52.092Z,101665.63
2023-05-11T11:07:06.585Z,101665.56
2023-05-11T11:09:16.076Z,101669.16
2023-05-11T11:11:34.258Z,101668.13
2023-05-11T11:14:01.482Z,101665.25
2023-05-11T11:16:02.933Z,101666.59
2023-05-11T11:18:20.316Z,101670.78
2023-05-11T11:20:54.988Z,101669.78
2023-05-11T11:22:56.457Z,101669.94
2023-05-11T11:24:57.991Z,101669.44
2023-05-11T11:26:59.503Z,101665.38
2023-05-11T11:29:11.572Z,101669.16
2023-05-11T11:31:29.236Z,101666.75
2023-05-11T11:33:32.568Z,101670.53
2023-05-11T11:35:40.065Z,101673.31
2023-05-11T11:38:03.142Z,101668.97
2023-05-11T11:40:14.795Z,101671.56
2023-05-11T11:42:20.038Z,101666.25
2023-05-11T11:44:22.305Z,101671.56
2023-05-11T11:46:29.774Z,101677.16
2023-05-11T11:48:35.691Z,101677.41
2023-05-11T11:50:37.396Z,101673.88
2023-05-11T11:52:38.890Z,101672.09
2023-05-11T11:54:41.402Z,101677.28
2023-05-11T11:56:44.861Z,101676.34
2023-05-11T11:58:46.572Z,101677.28
2023-05-11T12:00:48.326Z,101676.50
2023-05-11T12:02:50.076Z,101681.06
2023-05-11T12:05:00.932Z,101672.28
2023-05-11T12:07:06.109Z,101675.81
2023-05-11T12:09:08.435Z,101674.06
2023-05-11T12:11:09.977Z,101676.50
2023-05-11T12:13:11.646Z,101680.88
2023-05-11T12:15:30.474Z,101669.97
2023-05-11T12:17:34.530Z,101672.38
2023-05-11T12:19:36.698Z,101665.97
2023-05-11T12:21:38.249Z,101671.03
2023-05-11T12:23:39.725Z,101665.50
2023-05-11T12:25:41.205Z,101660.84
2023-05-11T12:28:01.986Z,101667.78
2023-05-11T12:30:03.606Z,101673.84
2023-05-11T12:32:05.399Z,101664.84
2023-05-11T12:34:07.265Z,101667.47
2023-05-11T12:36:09.040Z,101658.50
2023-05-11T12:38:11.651Z,101674.47
2023-05-11T12:40:13.997Z,101669.06
2023-05-11T12:42:18.726Z,101669.94
2023-05-11T12:44:22.385Z,101673.78
2023-05-11T12:46:24.227Z,101668.78
2023-05-11T12:48:25.863Z,101666.63
2023-05-11T12:50:27.349Z,101675.06
2023-05-11T12:52:28.818Z,101670.91
2023-05-11T12:54:38.344Z,101680.69
2023-05-11T12:56:47.357Z,101674.56
2023-05-11T12:58:48.841Z,101674.06
2023-05-11T13:00:57.587Z,101668.88
2023-05-11T13:02:59.154Z,101671.69
2023-05-11T13:05:12.028Z,101672.44
2023-05-11T13:07:23.263Z,101671.28
2023-05-11T13:09:25.807Z,101668.38
2023-05-11T13:11:27.345Z,101663.72
2023-05-11T13:13:29.359Z,101661.03
2023-05-11T13:15:31.295Z,101659.31
2023-05-11T13:17:37.663Z,101656.56
2023-05-11T13:19:39.556Z,101663.72
2023-05-11T13:21:46.227Z,101654.16
2023-05-11T13:23:51.600Z,101652.63
2023-05-11T13:25:54.158Z,101645.59
2023-05-11T13:27:55.900Z,101650.13
2023-05-11T13:29:57.349Z,101652.97
2023-05-11T13:31:58.832Z,101649.50
2023-05-11T13:34:00.499Z,101648.50
2023-05-11T13:36:02.223Z,101646.59
2023-05-11T13:38:03.687Z,101645.72
2023-05-11T13:40:08.843Z,101647.69
2023-05-11T13:42:10.489Z,101643.41
2023-05-11T13:44:12.074Z,101647.06
2023-05-11T13:46:13.564Z,101652.41
2023-05-11T13:48:15.064Z,101640.81
2023-05-11T13:50:16.869Z,101634.72
2023-05-11T13:52:18.427Z,101634.00
2023-05-11T13:54:21.234Z,101634.88
2023-05-11T13:56:22.907Z,101628.88
2023-05-11T13:58:24.518Z,101627.44
2023-05-11T14:00:26.132Z,101626.50
2023-05-11T14:02:27.836Z,101633.47
2023-05-11T14:04:29.428Z,101634.31
2023-05-11T14:06:34.560Z,101629.00
2023-05-11T14:08:36.140Z,101630.09
2023-05-11T14:10:37.610Z,101628.50
2023-05-11T14:12:39.112Z,101629.59
2023-05-11T14:14:40.684Z,101623.66
2023-05-11T14:16:42.266Z,101623.78
2023-05-11T14:18:44.401Z,101620.28
2023-05-11T14:20:46.109Z,101623.03
2023-05-11T14:22:47.636Z,101627.47
2023-05-11T14:24:49.209Z,101622.22
2023-05-11T14:26:50.695Z,101620.41
2023-05-11T14:28:52.342Z,101623.03
2023-05-11T14:30:54.824Z,101623.03
2023-05-11T14:32:57.033Z,101617.81
2023-05-11T14:34:58.589Z,101621.56
2023-05-11T14:37:01.241Z,101619.13
2023-05-11T14:39:02.776Z,101613.97
2023-05-11T14:41:04.405Z,101616.88
2023-05-11T14:43:05.921Z,101617.84
2023-05-11T14:45:07.972Z,101619.72
2023-05-11T14:47:09.555Z,101623.41
2023-05-11T14:49:11.026Z,101628.00
2023-05-11T14:51:12.535Z,101625.38
2023-05-11T14:53:13.999Z,101626.38
2023-05-11T14:55:15.577Z,101628.97
2023-05-11T14:57:17.649Z,101628.03
2023-05-11T14:59:20.052Z,101627.28
2023-05-11T15:01:21.584Z,101628.22
2023-05-11T15:03:25.025Z,101623.88
2023-05-11T15:05:27.552Z,101622.09
2023-05-11T15:07:29.030Z,101626.66
2023-05-11T15:09:30.529Z,101625.78
2023-05-11T15:11:32.078Z,101631.91
2023-05-11T15:13:33.542Z,101634.66
2023-05-11T15:15:35.040Z,101635.66
2023-05-11T15:17:36.685Z,101630.41
2023-05-11T15:19:38.247Z,101634.09
2023-05-11T15:21:39.694Z,101634.09
2023-05-11T15:23:41.389Z,101643.81
2023-05-11T15:25:44.526Z,101636.75
2023-05-11T15:27:46.150Z,101632.34
2023-05-11T15:29:47.703Z,101628.78
2023-05-11T15:31:49.205Z,101638.50
2023-05-11T15:33:50.773Z,101638.44
2023-05-11T15:35:52.400Z,101631.31
2023-05-11T15:37:53.908Z,101637.44
2023-05-11T15:39:55.482Z,101633.84
2023-05-11T15:41:56.943Z,101629.38
2023-05-11T15:43:58.398Z,101633.00
2023-05-11T15:46:00.089Z,101631.25
2023-05-11T15:48:02.170Z,101640.16
2023-05-11T15:50:04.033Z,101635.78
2023-05-11T15:52:05.754Z,101633.16
2023-05-11T15:54:07.257Z,101637.72
2023-05-11T15:56:09.640Z,101636.00
2023-05-11T15:58:11.717Z,101635.19
2023-05-11T16:00:13.978Z,101639.63
2023-05-11T16:02:15.491Z,101639.69
2023-05-11T16:04:16.995Z,101644.19
2023-05-11T16:06:18.464Z,101648.69
2023-05-11T16:08:20.350Z,101654.13
2023-05-11T16:10:22.156Z,101653.44
2023-05-11T16:12:23.680Z,101658.03
2023-05-11T16:14:25.254Z,101655.53
2023-05-11T16:16:27.134Z,101660.13
2023-05-11T16:18:28.726Z,101653.13
2023-05-11T16:20:30.693Z,101645.19
2023-05-11T16:22:32.288Z,101644.31
2023-05-11T16:24:34.507Z,101647.03
2023-05-11T16:26:36.340Z,101635.56
2023-05-11T16:28:37.909Z,101625.09
2023-05-11T16:30:39.383Z,101616.31
2023-05-11T16:32:40.899Z,101604.81
2023-05-11T16:34:42.625Z,101606.66
2023-05-11T16:36:44.942Z,101619.94
2023-05-11T16:38:46.839Z,101625.38
2023-05-11T16:40:49.656Z,101636.88
2023-05-11T16:42:51.191Z,101635.19
2023-05-11T16:44:52.688Z,101644.03
2023-05-11T16:46:54.297Z,101650.22
2023-05-11T16:48:56.722Z,101639.56
2023-05-11T16:50:59.952Z,101635.13
2023-05-11T16:53:01.571Z,101636.09
2023-05-11T16:55:03.772Z,101631.84
2023-05-11T16:57:05.903Z,101634.63
2023-05-11T16:59:08.771Z,101636.34
2023-05-11T17:01:11.151Z,101625.63
2023-05-11T17:03:12.856Z,101621.94
2023-05-11T17:05:15.919Z,101624.38
2023-05-11T17:07:17.371Z,101627.75
2023-05-11T17:09:18.887Z,101613.47
2023-05-11T17:11:21.518Z,101623.03
2023-05-11T17:13:23.022Z,101616.84
2023-05-11T17:15:24.530Z,101618.59
2023-05-11T17:17:26.115Z,101620.53
2023-05-11T17:19:27.592Z,101627.75
2023-05-11T17:21:29.150Z,101619.88
2023-05-11T17:23:31.403Z,101619.88
2023-05-11T17:25:33.296Z,101619.88
2023-05-11T17:27:36.582Z,101627.03
2023-05-11T17:29:38.091Z,101621.78
2023-05-11T17:31:40.218Z,101628.06
2023-05-11T17:33:42.215Z,101625.53
2023-05-11T17:35:43.964Z,101623.84
2023-05-11T17:37:45.525Z,101617.69
2023-05-11T17:39:47.875Z,101616.84
2023-05-11T17:41:49.500Z,101616.88
2023-05-11T17:43:51.092Z,101624.00
2023-05-11T17:45:52.642Z,101613.41
2023-05-11T17:47:54.457Z,101616.13
2023-05-11T17:49:56.411Z,101619.66
2023-05-11T17:51:58.757Z,101605.47
2023-05-11T17:54:00.206Z,101621.47
2023-05-11T17:56:01.951Z,101624.19
2023-05-11T17:58:03.412Z,101633.09
2023-05-11T18:00:06.233Z,101623.38
2023-05-11T18:02:08.180Z,101630.47
2023-05-11T18:04:09.732Z,101628.75
2023-05-11T18:06:11.449Z,101619.03
2023-05-11T18:08:14.173Z,101624.38
2023-05-11T18:10:15.751Z,101626.16
2023-05-11T18:12:17.672Z,101627.94
2023-05-11T18:14:19.332Z,101628.00
2023-05-11T18:16:21.299Z,101625.44
2023-05-11T18:18:23.833Z,101633.50
2023-05-11T18:20:25.818Z,101634.38
2023-05-11T18:22:28.237Z,101639.75
2023-05-11T18:24:29.815Z,101635.34
2023-05-11T18:26:31.454Z,101630.09
2023-05-11T18:28:33.078Z,101628.34
2023-05-11T18:30:35.657Z,101632.78
2023-05-11T18:32:37.393Z,101636.38
2023-05-11T18:34:42.554Z,101639.06
2023-05-11T18:36:44.063Z,101638.22
2023-05-11T18:38:48.786Z,101628.50
2023-05-11T18:40:51.325Z,101640.03
2023-05-11T18:42:53.728Z,101640.91
2023-05-11T18:44:55.192Z,101634.78
2023-05-11T18:46:56.772Z,101633.03
2023-05-11T18:48:58.288Z,101643.66
2023-05-11T18:50:59.802Z,101642.78
2023-05-11T18:53:02.118Z,101647.28
2023-05-11T18:55:04.151Z,101650.88
2023-05-11T18:57:07.796Z,101651.78
2023-05-11T18:59:09.429Z,101657.16
2023-05-11T19:01:11.050Z,101650.09
2023-05-11T19:03:14.601Z,101651.88
2023-05-11T19:05:16.278Z,101654.56
2023-05-11T19:07:20.007Z,101659.88
2023-05-11T19:09:22.928Z,101654.66
2023-05-11T19:11:25.587Z,101656.44
2023-05-11T19:13:27.110Z,101660.06
2023-05-11T19:15:28.612Z,101660.16
2023-05-11T19:17:30.416Z,101668.13
2023-05-11T19:19:32.058Z,101664.72
2023-05-11T19:21:35.489Z,101663.84
2023-05-11T19:23:37.200Z,101670.16
2023-05-11T19:25:38.813Z,101664.03
2023-05-11T19:27:40.344Z,101674.75
2023-05-11T19:29:41.843Z,101676.53
2023-05-11T19:31:43.746Z,101680.19
2023-05-11T19:33:45.308Z,101693.50
2023-05-11T19:35:46.768Z,101692.63
2023-05-11T19:37:48.349Z,101701.47
2023-05-11T19:39:49.899Z,101704.19
2023-05-11T19:41:51.403Z,101715.66
2023-05-11T19:43:52.902Z,101740.44
2023-05-11T19:45:54.450Z,101733.34
2023-05-11T19:47:55.972Z,101723.59
2023-05-11T19:49:57.602Z,101719.28
2023-05-11T19:51:59.064Z,101716.63
2023-05-11T19:54:00.719Z,101715.81
2023-05-11T19:56:02.288Z,101713.19
2023-05-11T19:58:03.750Z,101706.13
2023-05-11T20:00:07.203Z,101709.75
2023-05-11T20:02:08.688Z,101708.00
2023-05-11T20:04:12.655Z,101700.97
2023-05-11T20:06:14.125Z,101701.06
2023-05-11T20:08:16.227Z,101693.91
2023-05-11T20:10:18.043Z,101695.75
2023-05-11T20:12:19.720Z,101698.44
2023-05-11T20:14:21.188Z,101695.84
2023-05-11T20:16:22.798Z,101695.84
2023-05-11T20:18:24.335Z,101695.88
2023-05-11T20:20:25.887Z,101702.97
2023-05-11T20:22:27.575Z,101711.84
2023-05-11T20:24:29.327Z,101698.63
2023-05-11T20:26:31.182Z,101705.69
2023-05-11T20:28:32.728Z,101699.53
2023-05-11T20:30:34.209Z,101695.97
2023-05-11T20:32:37.299Z,101700.41
2023-05-11T20:34:39.017Z,101703.09
2023-05-11T20:36:40.563Z,101706.69
2023-05-11T20:38:42.006Z,101708.50
2023-05-11T20:40:43.533Z,101710.25
2023-05-11T20:42:45.060Z,101713.81
2023-05-11T20:44:49.212Z,101706.75
2023-05-11T20:46:50.728Z,101703.19
2023-05-11T20:48:52.388Z,101708.53
2023-05-11T20:50:54.829Z,101707.69
2023-05-11T20:52:56.406Z,101711.25
2023-05-11T20:54:57.855Z,101706.84
2023-05-11T20:56:59.710Z,101709.50
2023-05-11T20:59:01.170Z,101716.56
2023-05-11T21:01:02.729Z,101713.03
2023-05-11T21:03:04.564Z,101709.50
2023-05-11T21:05:06.538Z,101716.59
2023-05-11T21:07:08.423Z,101710.47
2023-05-11T21:09:10.868Z,101711.38
2023-05-11T21:11:12.345Z,101704.28
2023-05-11T21:13:13.888Z,101700.72
2023-05-11T21:15:15.413Z,101700.72
2023-05-11T21:17:17.079Z,101705.09
2023-05-11T21:19:19.610Z,101701.59
2023-05-11T21:21:21.330Z,101692.75
2023-05-11T21:23:22.783Z,101702.50
2023-05-11T21:25:24.266Z,101703.38
2023-05-11T21:27:25.825Z,101707.81
2023-05-11T21:29:27.282Z,101701.63
2023-05-11T21:31:28.891Z,101696.38
2023-05-11T21:33:30.511Z,101704.28
2023-05-11T21:35:31.973Z,101706.06
2023-05-11T21:37:35.483Z,101706.06
2023-05-11T21:39:36.966Z,101704.31
2023-05-11T21:41:39.105Z,101695.50
2023-05-11T21:43:41.070Z,101691.09
2023-05-11T21:45:44.439Z,101695.50
2023-05-11T21:47:46.183Z,101702.59
2023-05-11T21:49:48.190Z,101702.63
2023-05-11T21:51:51.019Z,101708.75
2023-05-11T21:53:53.010Z,101698.19
2023-05-11T21:55:55.028Z,101692.06
2023-05-11T21:57:56.646Z,101692.06
2023-05-11T21:59:58.139Z,101700.00
2023-05-11T22:01:59.759Z,101693.88
2023-05-11T22:04:01.425Z,101698.31
2023-05-11T22:06:03.042Z,101697.44
2023-05-11T22:08:13.980Z,101704.50
2023-05-11T22:10:16.367Z,101702.75
2023-05-11T22:12:18.058Z,101704.53
2023-05-11T22:14:23.934Z,101699.28
2023-05-11T22:16:25.597Z,101704.56
2023-05-11T22:18:27.181Z,101700.19
2023-05-11T22:20:28.645Z,101697.53
2023-05-11T22:22:30.737Z,101704.63
2023-05-11T22:24:32.282Z,101706.38
2023-05-11T22:26:33.739Z,101699.31
2023-05-11T22:28:35.983Z,101710.84
2023-05-11T22:30:37.531Z,101709.97
2023-05-11T22:32:39.018Z,101711.75
2023-05-11T22:34:40.527Z,101709.09
2023-05-11T22:36:41.980Z,101713.50
2023-05-11T22:38:43.460Z,101709.09
2023-05-11T22:40:44.971Z,101719.72
2023-05-11T22:42:46.591Z,101721.50
2023-05-11T22:44:48.533Z,101721.50
2023-05-11T22:46:50.399Z,101725.94
2023-05-11T22:48:51.927Z,101717.97
2023-05-11T22:50:53.770Z,101718.88
2023-05-11T22:52:55.270Z,101724.19
2023-05-11T22:54:59.533Z,101721.53
2023-05-11T22:57:01.666Z,101725.94
2023-05-11T22:59:04.605Z,101725.06
2023-05-11T23:01:06.404Z,101725.97
2023-05-11T23:03:08.243Z,101728.59
2023-05-11T23:05:10.063Z,101730.31
2023-05-11T23:07:12.827Z,101720.66
2023-05-11T23:09:15.060Z,101724.16
2023-05-11T23:11:16.599Z,101724.22
2023-05-11T23:13:18.468Z,101728.66
2023-05-11T23:15:20.013Z,101732.22
2023-05-11T23:17:21.745Z,101731.34
2023-05-11T23:19:25.127Z,101731.41
2023-05-11T23:21:26.932Z,101728.78
2023-05-11T23:23:28.410Z,101733.22
2023-05-11T23:25:29.893Z,101724.38
2023-05-11T23:27:31.384Z,101734.13